sensor_id;sensor_type;location;lat;lon;timestamp;pressure;altitude;pressure_sealevel;temperature;humidity
69214;BME280;56325;47.030;18.518;2023-02-12T00:02:28;101847.09;;;5.33;72.14
69214;BME280;56325;47.030;18.518;2023-02-12T00:05:05;101839.28;;;5.24;72.45
69214;BME280;56325;47.030;18.518;2023-02-12T00:07:39;101833.47;;;5.33;72.26
69214;BME280;56325;47.030;18.518;2023-02-12T00:10:14;101842.41;;;5.26;72.53
69214;BME280;56325;47.030;18.518;2023-02-12T00:12:48;101840.06;;;5.24;72.61
69214;BME280;56325;47.030;18.518;2023-02-12T00:15:23;101840.81;;;5.21;72.73
69214;BME280;56325;47.030;18.518;2023-02-12T00:17:57;101838.09;;;5.21;72.72
69214;BME280;56325;47.030;18.518;2023-02-12T00:20:34;101847.06;;;5.18;72.83
69214;BME280;56325;47.030;18.518;2023-02-12T00:23:09;101841.62;;;5.18;73.00
69214;BME280;56325;47.030;18.518;2023-02-12T00:25:44;101837.31;;;5.17;73.04
69214;BME280;56325;47.030;18.518;2023-02-12T00:28:19;101813.53;;;5.14;73.24
69214;BME280;56325;47.030;18.518;2023-02-12T00:30:53;101808.06;;;5.07;73.57
69214;BME280;56325;47.030;18.518;2023-02-12T00:33:28;101801.00;;;4.99;74.05
69214;BME280;56325;47.030;18.518;2023-02-12T00:36:06;101797.03;;;4.82;74.70
69214;BME280;56325;47.030;18.518;2023-02-12T00:38:41;101786.47;;;4.74;75.33
69214;BME280;56325;47.030;18.518;2023-02-12T00:41:15;101786.03;;;4.65;75.74
69214;BME280;56325;47.030;18.518;2023-02-12T00:43:49;101786.03;;;4.65;75.87
69214;BME280;56325;47.030;18.518;2023-02-12T00:46:24;101799.94;;;4.52;76.41
69214;BME280;56325;47.030;18.518;2023-02-12T00:48:59;101796.84;;;4.54;76.53
69214;BME280;56325;47.030;18.518;2023-02-12T00:51:35;101801.91;;;4.55;76.68
69214;BME280;56325;47.030;18.518;2023-02-12T00:54:09;101808.56;;;4.61;76.52
69214;BME280;56325;47.030;18.518;2023-02-12T00:56:44;101803.94;;;4.66;76.65
69214;BME280;56325;47.030;18.518;2023-02-12T00:59:18;101816.78;;;4.65;76.84
69214;BME280;56325;47.030;18.518;2023-02-12T01:01:54;101813.31;;;4.72;76.52
69214;BME280;56325;47.030;18.518;2023-02-12T01:04:28;101819.53;;;4.69;76.84
69214;BME280;56325;47.030;18.518;2023-02-12T01:07:05;101827.31;;;4.70;76.82
69214;BME280;56325;47.030;18.518;2023-02-12T01:09:39;101823.47;;;4.75;76.74
69214;BME280;56325;47.030;18.518;2023-02-12T01:12:14;101828.91;;;4.75;76.62
69214;BME280;56325;47.030;18.518;2023-02-12T01:14:54;101825.78;;;4.73;76.91
69214;BME280;56325;47.030;18.518;2023-02-12T01:17:29;101841.31;;;4.69;77.00
69214;BME280;56325;47.030;18.518;2023-02-12T01:20:04;101836.69;;;4.73;77.06
69214;BME280;56325;47.030;18.518;2023-02-12T01:22:40;101851.50;;;4.75;77.06
69214;BME280;56325;47.030;18.518;2023-02-12T01:25:15;101833.16;;;4.72;77.18
69214;BME280;56325;47.030;18.518;2023-02-12T01:27:53;101830.44;;;4.72;77.40
69214;BME280;56325;47.030;18.518;2023-02-12T01:30:27;101841.34;;;4.72;77.24
69214;BME280;56325;47.030;18.518;2023-02-12T01:33:01;101835.16;;;4.79;77.54
69214;BME280;56325;47.030;18.518;2023-02-12T01:35:36;101836.31;;;4.78;77.65
69214;BME280;56325;47.030;18.518;2023-02-12T01:38:12;101841.78;;;4.78;77.76
69214;BME280;56325;47.030;18.518;2023-02-12T01:40:46;101839.41;;;4.73;78.11
69214;BME280;56325;47.030;18.518;2023-02-12T01:43:21;101829.34;;;4.84;77.73
69214;BME280;56325;47.030;18.518;2023-02-12T01:45:58;101824.22;;;4.72;78.10
69214;BME280;56325;47.030;18.518;2023-02-12T01:48:36;101835.94;;;4.79;78.11
69214;BME280;56325;47.030;18.518;2023-02-12T01:51:15;101823.44;;;4.71;78.38
69214;BME280;56325;47.030;18.518;2023-02-12T01:53:55;101838.94;;;4.64;78.83
69214;BME280;56325;47.030;18.518;2023-02-12T01:56:32;101829.19;;;4.59;78.95
69214;BME280;56325;47.030;18.518;2023-02-12T01:59:08;101824.94;;;4.61;79.11
69214;BME280;56325;47.030;18.518;2023-02-12T02:01:43;101838.94;;;4.60;79.15
69214;BME280;56325;47.030;18.518;2023-02-12T02:04:22;101831.88;;;4.55;79.47
69214;BME280;56325;47.030;18.518;2023-02-12T02:06:58;101845.88;;;4.54;79.73
69214;BME280;56325;47.030;18.518;2023-02-12T02:09:37;101852.12;;;4.54;79.91
69214;BME280;56325;47.030;18.518;2023-02-12T02:12:12;101851.41;;;4.65;79.71
69214;BME280;56325;47.030;18.518;2023-02-12T02:15:04;101850.63;;;4.64;79.75
69214;BME280;56325;47.030;18.518;2023-02-12T02:17:46;101852.56;;;4.64;79.80
69214;BME280;56325;47.030;18.518;2023-02-12T02:27:14;101846.44;;;4.77;79.24
69214;BME280;56325;47.030;18.518;2023-02-12T02:32:56;101839.00;;;4.71;79.58
69214;BME280;56325;47.030;18.518;2023-02-12T02:35:38;101830.72;;;4.56;80.06
69214;BME280;56325;47.030;18.518;2023-02-12T02:38:21;101834.13;;;4.43;80.67
69214;BME280;56325;47.030;18.518;2023-02-12T02:41:03;101830.22;;;4.40;81.05
69214;BME280;56325;47.030;18.518;2023-02-12T02:43:43;101834.91;;;4.43;81.12
69214;BME280;56325;47.030;18.518;2023-02-12T02:46:25;101827.84;;;4.35;81.55
69214;BME280;56325;47.030;18.518;2023-02-12T02:49:05;101823.97;;;4.36;81.69
69214;BME280;56325;47.030;18.518;2023-02-12T02:51:43;101820.06;;;4.37;81.77
69214;BME280;56325;47.030;18.518;2023-02-12T02:54:20;101826.69;;;4.36;82.15
69214;BME280;56325;47.030;18.518;2023-02-12T02:57:00;101836.44;;;4.41;81.89
69214;BME280;56325;47.030;18.518;2023-02-12T02:59:41;101837.56;;;4.36;82.26
69214;BME280;56325;47.030;18.518;2023-02-12T03:02:19;101845.00;;;4.39;82.20
69214;BME280;56325;47.030;18.518;2023-02-12T03:05:00;101839.12;;;4.37;82.31
69214;BME280;56325;47.030;18.518;2023-02-12T03:07:38;101844.94;;;4.28;82.88
69214;BME280;56325;47.030;18.518;2023-02-12T03:10:17;101851.97;;;4.33;82.85
69214;BME280;56325;47.030;18.518;2023-02-12T03:12:58;101861.31;;;4.32;83.14
69214;BME280;56325;47.030;18.518;2023-02-12T03:15:37;101848.84;;;4.35;83.04
69214;BME280;56325;47.030;18.518;2023-02-12T03:18:15;101846.09;;;4.27;83.39
69214;BME280;56325;47.030;18.518;2023-02-12T03:20:57;101857.28;;;4.19;83.67
69214;BME280;56325;47.030;18.518;2023-02-12T03:23:37;101838.69;;;4.28;83.87
69214;BME280;56325;47.030;18.518;2023-02-12T03:26:18;101844.88;;;4.21;84.37
69214;BME280;56325;47.030;18.518;2023-02-12T03:28:55;101849.56;;;4.24;84.73
69214;BME280;56325;47.030;18.518;2023-02-12T03:31:34;101851.97;;;4.33;84.35
69214;BME280;56325;47.030;18.518;2023-02-12T03:34:17;101849.25;;;4.37;84.57
69214;BME280;56325;47.030;18.518;2023-02-12T03:36:59;101852.31;;;4.28;84.97
69214;BME280;56325;47.030;18.518;2023-02-12T03:39:44;101864.47;;;4.41;84.75
69214;BME280;56325;47.030;18.518;2023-02-12T03:42:31;101869.09;;;4.37;84.67
69214;BME280;56325;47.030;18.518;2023-02-12T03:45:16;101870.63;;;4.35;84.73
69214;BME280;56325;47.030;18.518;2023-02-12T03:47:58;101877.66;;;4.39;84.80
69214;BME280;56325;47.030;18.518;2023-02-12T03:50:39;101877.72;;;4.43;84.84
69214;BME280;56325;47.030;18.518;2023-02-12T03:53:17;101895.22;;;4.42;84.75
69214;BME280;56325;47.030;18.518;2023-02-12T03:55:55;101891.69;;;4.41;85.09
69214;BME280;56325;47.030;18.518;2023-02-12T03:58:33;101893.66;;;4.44;85.02
69214;BME280;56325;47.030;18.518;2023-02-12T04:01:08;101888.56;;;4.39;85.35
69214;BME280;56325;47.030;18.518;2023-02-12T04:03:44;101894.75;;;4.36;85.46
69214;BME280;56325;47.030;18.518;2023-02-12T04:06:19;101894.00;;;4.39;85.46
69214;BME280;56325;47.030;18.518;2023-02-12T04:08:59;101899.47;;;4.39;85.39
69214;BME280;56325;47.030;18.518;2023-02-12T04:11:45;101894.75;;;4.36;85.49
69214;BME280;56325;47.030;18.518;2023-02-12T04:14:25;101903.66;;;4.26;85.85
69214;BME280;56325;47.030;18.518;2023-02-12T04:17:05;101911.06;;;4.29;86.04
69214;BME280;56325;47.030;18.518;2023-02-12T04:19:50;101907.56;;;4.28;86.05
69214;BME280;56325;47.030;18.518;2023-02-12T04:22:38;101910.69;;;4.31;86.06
69214;BME280;56325;47.030;18.518;2023-02-12T04:25:28;101911.00;;;4.22;86.41
69214;BME280;56325;47.030;18.518;2023-02-12T04:28:12;101916.50;;;4.29;86.15
69214;BME280;56325;47.030;18.518;2023-02-12T04:30:55;101902.50;;;4.27;86.24
69214;BME280;56325;47.030;18.518;2023-02-12T04:33:34;101916.44;;;4.22;86.36
69214;BME280;56325;47.030;18.518;2023-02-12T04:36:14;101930.84;;;4.22;86.44
69214;BME280;56325;47.030;18.518;2023-02-12T04:38:52;101933.59;;;4.26;86.43
69214;BME280;56325;47.030;18.518;2023-02-12T04:41:29;101951.91;;;4.29;86.28
69214;BME280;56325;47.030;18.518;2023-02-12T04:44:15;101967.00;;;4.19;86.62
69214;BME280;56325;47.030;18.518;2023-02-12T04:46:50;101974.12;;;4.31;86.32
69214;BME280;56325;47.030;18.518;2023-02-12T04:49:26;101973.28;;;4.27;86.26
69214;BME280;56325;47.030;18.518;2023-02-12T04:52:01;101980.34;;;4.32;86.24
69214;BME280;56325;47.030;18.518;2023-02-12T04:54:35;101977.47;;;4.17;86.58
69214;BME280;56325;47.030;18.518;2023-02-12T04:57:11;101974.03;;;4.24;86.78
69214;BME280;56325;47.030;18.518;2023-02-12T04:59:45;101977.09;;;4.19;86.76
69214;BME280;56325;47.030;18.518;2023-02-12T05:02:20;101980.16;;;4.14;87.11
69214;BME280;56325;47.030;18.518;2023-02-12T05:04:54;101980.84;;;4.07;87.32
69214;BME280;56325;47.030;18.518;2023-02-12T05:07:29;101981.97;;;4.03;87.51
69214;BME280;56325;47.030;18.518;2023-02-12T05:10:03;101994.38;;;4.00;87.76
69214;BME280;56325;47.030;18.518;2023-02-12T05:12:40;101992.44;;;4.01;87.59
69214;BME280;56325;47.030;18.518;2023-02-12T05:15:14;101987.00;;;4.01;87.85
69214;BME280;56325;47.030;18.518;2023-02-12T05:17:48;101995.47;;;3.95;88.09
69214;BME280;56325;47.030;18.518;2023-02-12T05:20:23;102005.63;;;3.99;87.62
69214;BME280;56325;47.030;18.518;2023-02-12T05:22:57;101994.66;;;3.91;88.03
69214;BME280;56325;47.030;18.518;2023-02-12T05:25:32;102009.87;;;3.96;87.86
69214;BME280;56325;47.030;18.518;2023-02-12T05:28:07;102012.13;;;3.90;88.03
69214;BME280;56325;47.030;18.518;2023-02-12T05:30:42;102012.97;;;3.94;87.72
69214;BME280;56325;47.030;18.518;2023-02-12T05:33:17;102012.22;;;5.16;98.19
69214;BME280;56325;47.030;18.518;2023-02-12T05:35:51;102026.84;;;4.53;89.21
69214;BME280;56325;47.030;18.518;2023-02-12T05:38:26;102013.53;;;4.44;87.30
69214;BME280;56325;47.030;18.518;2023-02-12T05:41:01;102027.34;;;4.25;86.91
69214;BME280;56325;47.030;18.518;2023-02-12T05:43:37;102024.44;;;4.11;87.33
69214;BME280;56325;47.030;18.518;2023-02-12T05:46:12;102027.13;;;4.07;87.84
69214;BME280;56325;47.030;18.518;2023-02-12T05:48:47;102025.84;;;3.98;88.03
69214;BME280;56325;47.030;18.518;2023-02-12T05:51:23;102032.66;;;3.84;88.51
69214;BME280;56325;47.030;18.518;2023-02-12T05:54:00;102037.19;;;3.73;89.53
69214;BME280;56325;47.030;18.518;2023-02-12T05:56:37;102037.28;;;3.80;89.12
69214;BME280;56325;47.030;18.518;2023-02-12T05:59:18;102049.72;;;3.81;88.99
69214;BME280;56325;47.030;18.518;2023-02-12T06:01:52;102057.03;;;4.04;88.58
69214;BME280;56325;47.030;18.518;2023-02-12T06:04:27;102062.44;;;4.00;88.41
69214;BME280;56325;47.030;18.518;2023-02-12T06:07:02;102068.56;;;3.93;88.55
69214;BME280;56325;47.030;18.518;2023-02-12T06:09:36;102070.81;;;3.88;88.78
69214;BME280;56325;47.030;18.518;2023-02-12T06:12:11;102080.03;;;3.80;89.14
69214;BME280;56325;47.030;18.518;2023-02-12T06:14:46;102084.31;;;3.81;89.08
69214;BME280;56325;47.030;18.518;2023-02-12T06:17:21;102098.06;;;3.91;88.72
69214;BME280;56325;47.030;18.518;2023-02-12T06:19:55;102088.34;;;3.90;88.84
69214;BME280;56325;47.030;18.518;2023-02-12T06:22:29;102095.66;;;3.86;88.95
69214;BME280;56325;47.030;18.518;2023-02-12T06:25:05;102108.28;;;3.98;88.47
69214;BME280;56325;47.030;18.518;2023-02-12T06:27:39;102100.91;;;3.99;88.50
69214;BME280;56325;47.030;18.518;2023-02-12T06:30:15;102108.22;;;3.94;88.76
69214;BME280;56325;47.030;18.518;2023-02-12T06:32:50;102089.06;;;7.80;100.00
69214;BME280;56325;47.030;18.518;2023-02-12T06:35:24;102105.94;;;5.41;90.12
69214;BME280;56325;47.030;18.518;2023-02-12T06:37:59;102116.41;;;4.91;87.96
69214;BME280;56325;47.030;18.518;2023-02-12T06:40:33;102113.16;;;4.45;88.32
69214;BME280;56325;47.030;18.518;2023-02-12T06:43:08;102123.47;;;4.29;89.09
69214;BME280;56325;47.030;18.518;2023-02-12T06:45:44;102115.78;;;4.38;88.86
69214;BME280;56325;47.030;18.518;2023-02-12T06:48:18;102114.13;;;4.26;89.41
69214;BME280;56325;47.030;18.518;2023-02-12T06:50:53;102112.59;;;4.29;89.05
69214;BME280;56325;47.030;18.518;2023-02-12T06:53:27;102125.47;;;4.36;89.11
69214;BME280;56325;47.030;18.518;2023-02-12T06:56:02;102121.16;;;4.31;88.47
69214;BME280;56325;47.030;18.518;2023-02-12T06:58:39;102102.97;;;5.60;100.00
69214;BME280;56325;47.030;18.518;2023-02-12T07:02:53;102116.22;;;5.62;84.42
69214;BME280;56325;47.030;18.518;2023-02-12T07:05:28;102116.22;;;5.62;84.42
69214;BME280;56325;47.030;18.518;2023-02-12T07:08:02;102118.84;;;4.67;86.18
69214;BME280;56325;47.030;18.518;2023-02-12T07:10:37;102133.69;;;4.39;86.96
69214;BME280;56325;47.030;18.518;2023-02-12T07:13:15;102134.28;;;4.22;88.25
69214;BME280;56325;47.030;18.518;2023-02-12T07:15:51;102136.50;;;4.13;89.08
69214;BME280;56325;47.030;18.518;2023-02-12T07:18:28;102143.19;;;3.92;90.15
69214;BME280;56325;47.030;18.518;2023-02-12T07:21:05;102137.12;;;4.03;90.21
69214;BME280;56325;47.030;18.518;2023-02-12T07:23:40;102139.63;;;4.15;89.77
69214;BME280;56325;47.030;18.518;2023-02-12T07:26:15;102157.59;;;4.19;89.89
69214;BME280;56325;47.030;18.518;2023-02-12T07:28:50;102153.03;;;4.27;89.71
69214;BME280;56325;47.030;18.518;2023-02-12T07:31:24;102158.47;;;4.27;89.65
69214;BME280;56325;47.030;18.518;2023-02-12T07:34:01;102156.16;;;4.29;89.89
69214;BME280;56325;47.030;18.518;2023-02-12T07:36:35;102162.47;;;4.37;90.31
69214;BME280;56325;47.030;18.518;2023-02-12T07:39:10;102167.12;;;4.36;89.93
69214;BME280;56325;47.030;18.518;2023-02-12T07:41:46;102168.87;;;4.51;89.50
69214;BME280;56325;47.030;18.518;2023-02-12T07:44:21;102174.00;;;4.56;89.41
69214;BME280;56325;47.030;18.518;2023-02-12T07:46:55;102177.56;;;4.60;89.30
69214;BME280;56325;47.030;18.518;2023-02-12T07:49:31;102179.97;;;4.66;89.02
69214;BME280;56325;47.030;18.518;2023-02-12T07:52:06;102185.50;;;4.73;88.91
69214;BME280;56325;47.030;18.518;2023-02-12T07:54:42;102172.81;;;7.60;100.00
69214;BME280;56325;47.030;18.518;2023-02-12T07:57:17;102183.66;;;6.09;86.70
69214;BME280;56325;47.030;18.518;2023-02-12T07:59:51;102188.06;;;5.73;85.31
69214;BME280;56325;47.030;18.518;2023-02-12T08:02:26;102186.09;;;5.70;85.31
69214;BME280;56325;47.030;18.518;2023-02-12T08:05:02;102194.56;;;5.58;85.00
69214;BME280;56325;47.030;18.518;2023-02-12T08:07:37;102199.63;;;5.59;85.01
69214;BME280;56325;47.030;18.518;2023-02-12T08:10:14;102203.63;;;5.69;84.91
69214;BME280;56325;47.030;18.518;2023-02-12T08:12:51;102200.50;;;5.71;84.61
69214;BME280;56325;47.030;18.518;2023-02-12T08:15:26;102191.88;;;5.65;84.75
69214;BME280;56325;47.030;18.518;2023-02-12T08:18:00;102202.13;;;5.75;84.45
69214;BME280;56325;47.030;18.518;2023-02-12T08:20:36;102195.16;;;5.85;84.21
69214;BME280;56325;47.030;18.518;2023-02-12T08:23:11;102212.81;;;5.91;83.47
69214;BME280;56325;47.030;18.518;2023-02-12T08:25:45;102208.19;;;5.99;83.38
69214;BME280;56325;47.030;18.518;2023-02-12T08:28:19;102204.72;;;6.09;82.22
69214;BME280;56325;47.030;18.518;2023-02-12T08:30:59;102216.50;;;6.20;82.44
69214;BME280;56325;47.030;18.518;2023-02-12T08:33:34;102232.97;;;6.34;81.19
69214;BME280;56325;47.030;18.518;2023-02-12T08:36:11;102235.84;;;6.55;80.72
69214;BME280;56325;47.030;18.518;2023-02-12T08:38:46;102230.44;;;6.66;80.33
69214;BME280;56325;47.030;18.518;2023-02-12T08:41:23;102239.06;;;6.75;79.52
69214;BME280;56325;47.030;18.518;2023-02-12T08:43:59;102239.53;;;6.92;79.13
69214;BME280;56325;47.030;18.518;2023-02-12T08:46:36;102224.06;;;7.70;87.62
69214;BME280;56325;47.030;18.518;2023-02-12T08:49:12;102227.56;;;7.81;77.73
69214;BME280;56325;47.030;18.518;2023-02-12T08:51:49;102224.81;;;7.42;77.38
69214;BME280;56325;47.030;18.518;2023-02-12T08:54:26;102232.59;;;7.33;77.17
69214;BME280;56325;47.030;18.518;2023-02-12T08:57:02;102233.75;;;7.21;77.53
69214;BME280;56325;47.030;18.518;2023-02-12T08:59:36;102238.09;;;7.33;77.28
69214;BME280;56325;47.030;18.518;2023-02-12T09:02:11;102244.38;;;7.48;76.88
69214;BME280;56325;47.030;18.518;2023-02-12T09:04:45;102242.03;;;7.53;76.17
69214;BME280;56325;47.030;18.518;2023-02-12T09:07:21;102249.81;;;7.37;76.19
69214;BME280;56325;47.030;18.518;2023-02-12T09:09:55;102260.81;;;7.59;76.00
69214;BME280;56325;47.030;18.518;2023-02-12T09:12:30;102260.06;;;7.79;75.65
69214;BME280;56325;47.030;18.518;2023-02-12T09:15:04;102265.13;;;7.95;75.17
69214;BME280;56325;47.030;18.518;2023-02-12T09:17:39;102268.66;;;8.03;74.79
69214;BME280;56325;47.030;18.518;2023-02-12T09:20:15;102267.87;;;8.13;74.56
69214;BME280;56325;47.030;18.518;2023-02-12T09:22:51;102279.22;;;7.94;73.68
69214;BME280;56325;47.030;18.518;2023-02-12T09:25:26;102283.91;;;7.97;74.11
69214;BME280;56325;47.030;18.518;2023-02-12T09:28:01;102283.91;;;7.86;73.91
69214;BME280;56325;47.030;18.518;2023-02-12T09:30:36;102285.88;;;7.78;73.92
69214;BME280;56325;47.030;18.518;2023-02-12T09:33:11;102287.81;;;7.85;74.03
69214;BME280;56325;47.030;18.518;2023-02-12T09:35:45;102285.50;;;8.12;73.24
69214;BME280;56325;47.030;18.518;2023-02-12T09:38:21;102287.44;;;8.22;72.77
69214;BME280;56325;47.030;18.518;2023-02-12T09:41:08;102288.25;;;8.33;71.97
69214;BME280;56325;47.030;18.518;2023-02-12T09:43:51;102291.34;;;8.64;72.16
69214;BME280;56325;47.030;18.518;2023-02-12T09:46:29;102277.28;;;8.40;70.73
69214;BME280;56325;47.030;18.518;2023-02-12T09:49:08;102282.75;;;8.40;71.10
69214;BME280;56325;47.030;18.518;2023-02-12T09:51:44;102289.00;;;8.55;70.08
69214;BME280;56325;47.030;18.518;2023-02-12T09:54:30;102283.91;;;8.61;69.34
69214;BME280;56325;47.030;18.518;2023-02-12T09:57:24;102288.91;;;8.87;69.00
69214;BME280;56325;47.030;18.518;2023-02-12T10:00:05;102300.69;;;8.70;68.14
69214;BME280;56325;47.030;18.518;2023-02-12T10:02:40;102281.47;;;8.84;67.95
69214;BME280;56325;47.030;18.518;2023-02-12T10:05:16;102282.59;;;8.94;68.25
69214;BME280;56325;47.030;18.518;2023-02-12T10:08:16;102284.19;;;8.91;68.49
69214;BME280;56325;47.030;18.518;2023-02-12T10:11:06;102281.00;;;9.03;67.67
69214;BME280;56325;47.030;18.518;2023-02-12T10:13:51;102286.41;;;9.25;67.91
69214;BME280;56325;47.030;18.518;2023-02-12T10:16:38;102280.50;;;9.30;66.58
69214;BME280;56325;47.030;18.518;2023-02-12T10:19:26;102280.84;;;9.39;66.96
69214;BME280;56325;47.030;18.518;2023-02-12T10:22:12;102294.16;;;9.40;66.79
69214;BME280;56325;47.030;18.518;2023-02-12T10:24:59;102295.34;;;9.43;65.87
69214;BME280;56325;47.030;18.518;2023-02-12T10:27:38;102290.13;;;9.59;65.91
69214;BME280;56325;47.030;18.518;2023-02-12T10:30:18;102295.72;;;9.45;66.03
69214;BME280;56325;47.030;18.518;2023-02-12T10:32:59;102291.22;;;9.72;65.33
69214;BME280;56325;47.030;18.518;2023-02-12T10:35:35;102299.75;;;9.85;64.86
69214;BME280;56325;47.030;18.518;2023-02-12T10:38:16;102299.50;;;9.65;64.83
69214;BME280;56325;47.030;18.518;2023-02-12T10:40:53;102294.03;;;9.62;64.25
69214;BME280;56325;47.030;18.518;2023-02-12T10:43:31;102288.88;;;9.67;65.03
69214;BME280;56325;47.030;18.518;2023-02-12T10:46:07;102281.13;;;9.55;64.00
69214;BME280;56325;47.030;18.518;2023-02-12T10:48:47;102292.47;;;9.57;64.50
69214;BME280;56325;47.030;18.518;2023-02-12T10:51:35;102279.91;;;9.60;64.89
69214;BME280;56325;47.030;18.518;2023-02-12T10:54:33;102279.81;;;9.74;65.31
69214;BME280;56325;47.030;18.518;2023-02-12T10:57:15;102275.47;;;9.76;64.24
69214;BME280;56325;47.030;18.518;2023-02-12T10:59:52;102286.72;;;9.96;64.07
69214;BME280;56325;47.030;18.518;2023-02-12T11:02:31;102285.19;;;9.92;63.38
69214;BME280;56325;47.030;18.518;2023-02-12T11:05:22;102276.03;;;10.05;62.77
69214;BME280;56325;47.030;18.518;2023-02-12T11:07:57;102274.09;;;10.06;62.88
69214;BME280;56325;47.030;18.518;2023-02-12T11:10:37;102281.09;;;10.14;63.20
69214;BME280;56325;47.030;18.518;2023-02-12T11:13:22;102283.06;;;10.13;62.55
69214;BME280;56325;47.030;18.518;2023-02-12T11:15:59;102285.41;;;10.11;63.56
69214;BME280;56325;47.030;18.518;2023-02-12T11:18:36;102281.06;;;10.17;62.12
69214;BME280;56325;47.030;18.518;2023-02-12T11:21:11;102276.09;;;10.43;62.68
69214;BME280;56325;47.030;18.518;2023-02-12T11:23:46;102274.94;;;10.40;61.59
69214;BME280;56325;47.030;18.518;2023-02-12T11:26:26;102272.81;;;10.59;62.15
69214;BME280;56325;47.030;18.518;2023-02-12T11:29:16;102292.94;;;10.86;60.50
69214;BME280;56325;47.030;18.518;2023-02-12T11:32:03;102288.19;;;10.52;59.68
69214;BME280;56325;47.030;18.518;2023-02-12T11:34:40;102275.09;;;10.64;60.11
69214;BME280;56325;47.030;18.518;2023-02-12T11:37:17;102274.97;;;10.78;59.38
69214;BME280;56325;47.030;18.518;2023-02-12T11:39:52;102278.84;;;10.80;58.47
69214;BME280;56325;47.030;18.518;2023-02-12T11:42:28;102278.22;;;10.66;58.58
69214;BME280;56325;47.030;18.518;2023-02-12T11:45:05;102281.41;;;10.64;58.30
69214;BME280;56325;47.030;18.518;2023-02-12T11:47:41;102276.88;;;10.81;59.08
69214;BME280;56325;47.030;18.518;2023-02-12T11:50:23;102271.50;;;11.04;58.13
69214;BME280;56325;47.030;18.518;2023-02-12T11:53:01;102271.06;;;11.36;57.50
69214;BME280;56325;47.030;18.518;2023-02-12T11:55:40;102264.97;;;11.22;56.29
69214;BME280;56325;47.030;18.518;2023-02-12T11:58:20;102274.75;;;11.26;57.97
69214;BME280;56325;47.030;18.518;2023-02-12T12:01:03;102276.28;;;11.27;56.67
69214;BME280;56325;47.030;18.518;2023-02-12T12:03:44;102274.19;;;11.38;55.65
69214;BME280;56325;47.030;18.518;2023-02-12T12:06:32;102267.72;;;10.91;56.19
69214;BME280;56325;47.030;18.518;2023-02-12T12:09:13;102285.06;;;10.50;57.54
69214;BME280;56325;47.030;18.518;2023-02-12T12:11:57;102273.69;;;10.48;60.74
69214;BME280;56325;47.030;18.518;2023-02-12T12:14:38;102256.25;;;11.80;67.03
69214;BME280;56325;47.030;18.518;2023-02-12T12:17:37;102257.13;;;11.20;56.37
69214;BME280;56325;47.030;18.518;2023-02-12T12:20:37;102260.81;;;10.76;57.57
69214;BME280;56325;47.030;18.518;2023-02-12T12:23:16;102251.41;;;11.34;55.08
69214;BME280;56325;47.030;18.518;2023-02-12T12:25:55;102256.50;;;11.90;54.02
69214;BME280;56325;47.030;18.518;2023-02-12T12:28:35;102266.50;;;11.26;55.10
69214;BME280;56325;47.030;18.518;2023-02-12T12:31:13;102266.09;;;10.60;56.02
69214;BME280;56325;47.030;18.518;2023-02-12T12:33:59;102260.56;;;10.29;56.77
69214;BME280;56325;47.030;18.518;2023-02-12T12:40:11;102234.72;;;11.72;54.76
69214;BME280;56325;47.030;18.518;2023-02-12T12:43:07;102233.84;;;12.02;53.51
69214;BME280;56325;47.030;18.518;2023-02-12T12:45:55;102236.63;;;12.02;52.59
69214;BME280;56325;47.030;18.518;2023-02-12T12:48:51;102239.03;;;11.46;53.31
69214;BME280;56325;47.030;18.518;2023-02-12T12:51:44;102236.81;;;11.10;54.98
69214;BME280;56325;47.030;18.518;2023-02-12T12:54:40;102252.44;;;10.52;56.09
69214;BME280;56325;47.030;18.518;2023-02-12T12:57:31;102241.28;;;10.33;57.24
69214;BME280;56325;47.030;18.518;2023-02-12T13:03:30;102252.94;;;9.99;58.10
69214;BME280;56325;47.030;18.518;2023-02-12T13:06:38;102245.91;;;9.95;58.29
69214;BME280;56325;47.030;18.518;2023-02-12T13:13:04;102247.16;;;9.86;58.86
69214;BME280;56325;47.030;18.518;2023-02-12T13:15:46;102246.03;;;10.29;57.08
69214;BME280;56325;47.030;18.518;2023-02-12T13:18:32;102246.09;;;10.18;56.97
69214;BME280;56325;47.030;18.518;2023-02-12T13:21:14;102251.03;;;9.93;56.55
69214;BME280;56325;47.030;18.518;2023-02-12T13:23:58;102252.69;;;9.79;56.87
69214;BME280;56325;47.030;18.518;2023-02-12T13:26:46;102251.75;;;9.48;58.43
69214;BME280;56325;47.030;18.518;2023-02-12T13:29:27;102260.69;;;9.60;57.71
69214;BME280;56325;47.030;18.518;2023-02-12T13:32:06;102266.16;;;9.63;57.95
69214;BME280;56325;47.030;18.518;2023-02-12T13:34:46;102260.94;;;9.79;57.29
69214;BME280;56325;47.030;18.518;2023-02-12T13:37:32;102253.19;;;10.57;56.05
69214;BME280;56325;47.030;18.518;2023-02-12T13:40:14;102251.84;;;10.34;55.56
69214;BME280;56325;47.030;18.518;2023-02-12T13:42:53;102253.22;;;10.12;56.50
69214;BME280;56325;47.030;18.518;2023-02-12T13:45:40;102251.81;;;9.93;57.02
69214;BME280;56325;47.030;18.518;2023-02-12T13:48:28;102264.47;;;9.80;56.26
69214;BME280;56325;47.030;18.518;2023-02-12T13:51:18;102270.47;;;9.64;57.03
69214;BME280;56325;47.030;18.518;2023-02-12T13:54:02;102263.44;;;9.60;55.63
69214;BME280;56325;47.030;18.518;2023-02-12T13:56:41;102262.00;;;9.41;55.76
69214;BME280;56325;47.030;18.518;2023-02-12T13:59:42;102263.94;;;10.78;82.47
69214;BME280;56325;47.030;18.518;2023-02-12T14:02:43;102261.13;;;11.15;63.75
69214;BME280;56325;47.030;18.518;2023-02-12T14:05:29;102267.56;;;10.34;54.60
69214;BME280;56325;47.030;18.518;2023-02-12T14:08:05;102277.75;;;10.37;53.51
69214;BME280;56325;47.030;18.518;2023-02-12T14:10:40;102278.84;;;9.98;53.16